sensor_id;sensor_type;location;lat;lon;timestamp;P1;durP1;ratioP1;P2;durP2;ratioP2
84381;SDS011;74572;51.834;5.820;2024-01-10T00:02:00;1.70;;;0.95;;
84381;SDS011;74572;51.834;5.820;2024-01-10T00:04:26;1.48;;;0.90;;
84381;SDS011;74572;51.834;5.820;2024-01-10T00:06:52;0.95;;;0.73;;
84381;SDS011;74572;51.834;5.820;2024-01-10T00:09:19;2.60;;;0.82;;
84381;SDS011;74572;51.834;5.820;2024-01-10T00:11:44;1.85;;;0.93;;
84381;SDS011;74572;51.834;5.820;2024-01-10T00:14:10;1.75;;;0.82;;
84381;SDS011;74572;51.834;5.820;2024-01-10T00:16:36;2.58;;;1.33;;
84381;SDS011;74572;51.834;5.820;2024-01-10T00:19:01;1.65;;;0.60;;
84381;SDS011;74572;51.834;5.820;2024-01-10T00:21:27;2.03;;;0.93;;
84381;SDS011;74572;51.834;5.820;2024-01-10T00:23:52;1.48;;;0.90;;
84381;SDS011;74572;51.834;5.820;2024-01-10T00:26:18;1.08;;;0.63;;
84381;SDS011;74572;51.834;5.820;2024-01-10T00:28:43;1.73;;;1.17;;
84381;SDS011;74572;51.834;5.820;2024-01-10T00:31:11;4.90;;;1.05;;
84381;SDS011;74572;51.834;5.820;2024-01-10T00:33:36;1.75;;;0.82;;
84381;SDS011;74572;51.834;5.820;2024-01-10T00:36:02;2.72;;;1.17;;
84381;SDS011;74572;51.834;5.820;2024-01-10T00:38:29;1.13;;;0.40;;
84381;SDS011;74572;51.834;5.820;2024-01-10T00:40:56;1.45;;;0.70;;
84381;SDS011;74572;51.834;5.820;2024-01-10T00:43:22;2.13;;;1.17;;
84381;SDS011;74572;51.834;5.820;2024-01-10T00:45:47;1.92;;;0.90;;
84381;SDS011;74572;51.834;5.820;2024-01-10T00:48:13;1.70;;;0.80;;
84381;SDS011;74572;51.834;5.820;2024-01-10T00:50:38;2.22;;;1.30;;
84381;SDS011;74572;51.834;5.820;2024-01-10T00:53:04;1.52;;;1.08;;
84381;SDS011;74572;51.834;5.820;2024-01-10T00:55:29;1.25;;;0.52;;
84381;SDS011;74572;51.834;5.820;2024-01-10T00:57:54;1.70;;;0.83;;
84381;SDS011;74572;51.834;5.820;2024-01-10T01:00:20;2.15;;;0.70;;
84381;SDS011;74572;51.834;5.820;2024-01-10T01:02:45;2.55;;;0.88;;
84381;SDS011;74572;51.834;5.820;2024-01-10T01:05:11;2.15;;;0.88;;
84381;SDS011;74572;51.834;5.820;2024-01-10T01:07:38;1.05;;;0.68;;
84381;SDS011;74572;51.834;5.820;2024-01-10T01:10:03;2.03;;;0.85;;
84381;SDS011;74572;51.834;5.820;2024-01-10T01:12:30;1.02;;;0.50;;
84381;SDS011;74572;51.834;5.820;2024-01-10T01:14:57;0.28;;;0.28;;
84381;SDS011;74572;51.834;5.820;2024-01-10T01:17:23;4.35;;;2.08;;
84381;SDS011;74572;51.834;5.820;2024-01-10T01:19:48;1.48;;;0.77;;
84381;SDS011;74572;51.834;5.820;2024-01-10T01:22:14;2.80;;;1.27;;
84381;SDS011;74572;51.834;5.820;2024-01-10T01:24:40;0.98;;;0.65;;
84381;SDS011;74572;51.834;5.820;2024-01-10T01:27:05;0.95;;;0.63;;
84381;SDS011;74572;51.834;5.820;2024-01-10T01:29:31;0.45;;;0.35;;
84381;SDS011;74572;51.834;5.820;2024-01-10T01:31:56;2.30;;;0.88;;
84381;SDS011;74572;51.834;5.820;2024-01-10T01:34:22;0.38;;;0.38;;
84381;SDS011;74572;51.834;5.820;2024-01-10T01:36:47;1.95;;;0.60;;
84381;SDS011;74572;51.834;5.820;2024-01-10T01:39:14;2.25;;;0.55;;
84381;SDS011;74572;51.834;5.820;2024-01-10T01:41:43;1.25;;;0.75;;
84381;SDS011;74572;51.834;5.820;2024-01-10T01:44:09;2.28;;;1.15;;
84381;SDS011;74572;51.834;5.820;2024-01-10T01:46:35;1.20;;;0.60;;
84381;SDS011;74572;51.834;5.820;2024-01-10T01:49:00;1.25;;;0.57;;
84381;SDS011;74572;51.834;5.820;2024-01-10T01:51:26;5.63;;;0.77;;
84381;SDS011;74572;51.834;5.820;2024-01-10T01:53:55;2.50;;;0.88;;
84381;SDS011;74572;51.834;5.820;2024-01-10T01:56:21;1.45;;;0.63;;
84381;SDS011;74572;51.834;5.820;2024-01-10T01:58:49;1.10;;;0.52;;
84381;SDS011;74572;51.834;5.820;2024-01-10T02:01:17;2.30;;;0.98;;
84381;SDS011;74572;51.834;5.820;2024-01-10T02:03:46;1.80;;;0.65;;
84381;SDS011;74572;51.834;5.820;2024-01-10T02:06:13;1.75;;;0.73;;
84381;SDS011;74572;51.834;5.820;2024-01-10T02:08:38;1.88;;;1.02;;
84381;SDS011;74572;51.834;5.820;2024-01-10T02:11:04;1.25;;;0.63;;
84381;SDS011;74572;51.834;5.820;2024-01-10T02:13:30;1.20;;;0.73;;
84381;SDS011;74572;51.834;5.820;2024-01-10T02:15:58;5.35;;;1.05;;
84381;SDS011;74572;51.834;5.820;2024-01-10T02:18:24;1.50;;;0.80;;
84381;SDS011;74572;51.834;5.820;2024-01-10T02:20:50;2.50;;;1.05;;
84381;SDS011;74572;51.834;5.820;2024-01-10T02:23:15;2.38;;;0.90;;
84381;SDS011;74572;51.834;5.820;2024-01-10T02:25:41;1.75;;;0.95;;
84381;SDS011;74572;51.834;5.820;2024-01-10T02:28:08;2.92;;;1.42;;
84381;SDS011;74572;51.834;5.820;2024-01-10T02:30:36;1.50;;;0.73;;
84381;SDS011;74572;51.834;5.820;2024-01-10T02:33:02;2.53;;;0.85;;
84381;SDS011;74572;51.834;5.820;2024-01-10T02:35:28;0.77;;;0.15;;
84381;SDS011;74572;51.834;5.820;2024-01-10T02:37:57;1.73;;;0.73;;
84381;SDS011;74572;51.834;5.820;2024-01-10T02:40:24;2.38;;;0.73;;
84381;SDS011;74572;51.834;5.820;2024-01-10T02:42:52;2.05;;;0.85;;
84381;SDS011;74572;51.834;5.820;2024-01-10T02:45:17;1.23;;;0.93;;
84381;SDS011;74572;51.834;5.820;2024-01-10T02:47:43;2.40;;;0.88;;
84381;SDS011;74572;51.834;5.820;2024-01-10T02:50:11;2.83;;;1.75;;
84381;SDS011;74572;51.834;5.820;2024-01-10T02:52:36;1.58;;;0.57;;
84381;SDS011;74572;51.834;5.820;2024-01-10T02:55:02;2.38;;;0.85;;
84381;SDS011;74572;51.834;5.820;2024-01-10T02:57:27;0.93;;;0.70;;
84381;SDS011;74572;51.834;5.820;2024-01-10T02:59:52;0.63;;;0.50;;
84381;SDS011;74572;51.834;5.820;2024-01-10T03:02:18;2.03;;;1.00;;
84381;SDS011;74572;51.834;5.820;2024-01-10T03:04:44;6.78;;;1.70;;
84381;SDS011;74572;51.834;5.820;2024-01-10T03:07:10;1.17;;;0.45;;
84381;SDS011;74572;51.834;5.820;2024-01-10T03:09:37;1.65;;;1.00;;
84381;SDS011;74572;51.834;5.820;2024-01-10T03:12:02;2.47;;;1.50;;
84381;SDS011;74572;51.834;5.820;2024-01-10T03:14:28;1.00;;;0.85;;
84381;SDS011;74572;51.834;5.820;2024-01-10T03:16:53;0.30;;;0.20;;
84381;SDS011;74572;51.834;5.820;2024-01-10T03:19:19;2.03;;;1.08;;
84381;SDS011;74572;51.834;5.820;2024-01-10T03:21:44;1.45;;;0.63;;
84381;SDS011;74572;51.834;5.820;2024-01-10T03:24:10;0.55;;;0.40;;
84381;SDS011;74572;51.834;5.820;2024-01-10T03:26:38;2.00;;;1.42;;
84381;SDS011;74572;51.834;5.820;2024-01-10T03:29:03;1.98;;;0.82;;
84381;SDS011;74572;51.834;5.820;2024-01-10T03:31:29;2.63;;;1.20;;
84381;SDS011;74572;51.834;5.820;2024-01-10T03:33:57;0.82;;;0.55;;
84381;SDS011;74572;51.834;5.820;2024-01-10T03:36:26;2.45;;;1.27;;
84381;SDS011;74572;51.834;5.820;2024-01-10T03:38:51;3.67;;;1.30;;
84381;SDS011;74572;51.834;5.820;2024-01-10T03:41:18;1.63;;;0.77;;
84381;SDS011;74572;51.834;5.820;2024-01-10T03:43:47;10.15;;;1.55;;
84381;SDS011;74572;51.834;5.820;2024-01-10T03:46:12;2.22;;;1.00;;
84381;SDS011;74572;51.834;5.820;2024-01-10T03:48:38;0.60;;;0.45;;
84381;SDS011;74572;51.834;5.820;2024-01-10T03:51:12;2.47;;;0.88;;
84381;SDS011;74572;51.834;5.820;2024-01-10T03:53:42;0.82;;;0.52;;
84381;SDS011;74572;51.834;5.820;2024-01-10T03:56:10;2.22;;;1.20;;
84381;SDS011;74572;51.834;5.820;2024-01-10T03:58:37;2.75;;;1.05;;
84381;SDS011;74572;51.834;5.820;2024-01-10T04:01:08;1.13;;;0.73;;
84381;SDS011;74572;51.834;5.820;2024-01-10T04:03:34;1.85;;;0.45;;
84381;SDS011;74572;51.834;5.820;2024-01-10T04:06:01;2.05;;;0.85;;
84381;SDS011;74572;51.834;5.820;2024-01-10T04:08:30;1.92;;;0.98;;
84381;SDS011;74572;51.834;5.820;2024-01-10T04:10:56;2.17;;;0.63;;
84381;SDS011;74572;51.834;5.820;2024-01-10T04:13:21;2.63;;;1.10;;
84381;SDS011;74572;51.834;5.820;2024-01-10T04:15:46;2.25;;;1.13;;
84381;SDS011;74572;51.834;5.820;2024-01-10T04:18:12;2.85;;;1.15;;
84381;SDS011;74572;51.834;5.820;2024-01-10T04:20:37;3.55;;;1.65;;
84381;SDS011;74572;51.834;5.820;2024-01-10T04:23:03;2.87;;;1.10;;
84381;SDS011;74572;51.834;5.820;2024-01-10T04:25:28;2.08;;;1.20;;
84381;SDS011;74572;51.834;5.820;2024-01-10T04:27:54;1.98;;;1.25;;
84381;SDS011;74572;51.834;5.820;2024-01-10T04:30:20;0.70;;;0.70;;
84381;SDS011;74572;51.834;5.820;2024-01-10T04:32:45;2.03;;;0.88;;
84381;SDS011;74572;51.834;5.820;2024-01-10T04:35:11;3.53;;;1.53;;
84381;SDS011;74572;51.834;5.820;2024-01-10T04:37:36;1.83;;;0.93;;
84381;SDS011;74572;51.834;5.820;2024-01-10T04:40:06;2.13;;;0.75;;
84381;SDS011;74572;51.834;5.820;2024-01-10T04:42:32;1.63;;;0.65;;
84381;SDS011;74572;51.834;5.820;2024-01-10T04:44:58;2.65;;;1.27;;
84381;SDS011;74572;51.834;5.820;2024-01-10T04:47:24;2.07;;;1.10;;
84381;SDS011;74572;51.834;5.820;2024-01-10T04:49:49;2.83;;;1.25;;
84381;SDS011;74572;51.834;5.820;2024-01-10T04:52:15;1.85;;;0.88;;
84381;SDS011;74572;51.834;5.820;2024-01-10T04:54:41;1.33;;;1.23;;
84381;SDS011;74572;51.834;5.820;2024-01-10T04:57:08;3.08;;;1.55;;
84381;SDS011;74572;51.834;5.820;2024-01-10T04:59:33;2.10;;;0.93;;
84381;SDS011;74572;51.834;5.820;2024-01-10T05:02:00;3.63;;;1.30;;
84381;SDS011;74572;51.834;5.820;2024-01-10T05:04:25;2.10;;;1.33;;
84381;SDS011;74572;51.834;5.820;2024-01-10T05:06:52;1.30;;;0.60;;
84381;SDS011;74572;51.834;5.820;2024-01-10T05:09:17;1.90;;;0.50;;
84381;SDS011;74572;51.834;5.820;2024-01-10T05:11:43;3.63;;;2.08;;
84381;SDS011;74572;51.834;5.820;2024-01-10T05:14:12;1.45;;;1.35;;
84381;SDS011;74572;51.834;5.820;2024-01-10T05:16:38;1.23;;;0.32;;
84381;SDS011;74572;51.834;5.820;2024-01-10T05:19:03;0.52;;;0.52;;
84381;SDS011;74572;51.834;5.820;2024-01-10T05:21:30;4.00;;;1.67;;
84381;SDS011;74572;51.834;5.820;2024-01-10T05:23:58;2.75;;;1.83;;
84381;SDS011;74572;51.834;5.820;2024-01-10T05:26:24;2.83;;;1.15;;
84381;SDS011;74572;51.834;5.820;2024-01-10T05:28:49;5.28;;;1.13;;
84381;SDS011;74572;51.834;5.820;2024-01-10T05:31:15;2.47;;;0.50;;
84381;SDS011;74572;51.834;5.820;2024-01-10T05:33:40;0.82;;;0.57;;
84381;SDS011;74572;51.834;5.820;2024-01-10T05:36:07;1.98;;;1.13;;
84381;SDS011;74572;51.834;5.820;2024-01-10T05:38:40;2.65;;;1.10;;
84381;SDS011;74572;51.834;5.820;2024-01-10T05:41:06;2.03;;;1.15;;
84381;SDS011;74572;51.834;5.820;2024-01-10T05:43:32;1.90;;;0.85;;
84381;SDS011;74572;51.834;5.820;2024-01-10T05:45:57;6.57;;;1.08;;
84381;SDS011;74572;51.834;5.820;2024-01-10T05:48:24;4.97;;;1.20;;
84381;SDS011;74572;51.834;5.820;2024-01-10T05:50:50;2.65;;;1.02;;
84381;SDS011;74572;51.834;5.820;2024-01-10T05:53:19;2.20;;;0.68;;
84381;SDS011;74572;51.834;5.820;2024-01-10T05:55:44;3.58;;;0.90;;
84381;SDS011;74572;51.834;5.820;2024-01-10T05:58:10;4.00;;;1.38;;
84381;SDS011;74572;51.834;5.820;2024-01-10T06:00:36;1.02;;;0.60;;
84381;SDS011;74572;51.834;5.820;2024-01-10T06:03:04;0.40;;;0.20;;
84381;SDS011;74572;51.834;5.820;2024-01-10T06:05:29;1.75;;;0.95;;
84381;SDS011;74572;51.834;5.820;2024-01-10T06:07:56;2.75;;;1.60;;
84381;SDS011;74572;51.834;5.820;2024-01-10T06:10:22;3.03;;;0.90;;
84381;SDS011;74572;51.834;5.820;2024-01-10T06:12:48;4.13;;;1.67;;
84381;SDS011;74572;51.834;5.820;2024-01-10T06:15:14;0.88;;;0.60;;
84381;SDS011;74572;51.834;5.820;2024-01-10T06:17:41;1.63;;;0.85;;
84381;SDS011;74572;51.834;5.820;2024-01-10T06:20:07;3.47;;;1.70;;
84381;SDS011;74572;51.834;5.820;2024-01-10T06:22:35;5.28;;;1.23;;
84381;SDS011;74572;51.834;5.820;2024-01-10T06:25:01;4.95;;;1.63;;
84381;SDS011;74572;51.834;5.820;2024-01-10T06:27:27;3.03;;;1.33;;
84381;SDS011;74572;51.834;5.820;2024-01-10T06:29:52;1.05;;;0.98;;
84381;SDS011;74572;51.834;5.820;2024-01-10T06:32:18;3.80;;;1.27;;
84381;SDS011;74572;51.834;5.820;2024-01-10T06:34:43;0.77;;;0.50;;
84381;SDS011;74572;51.834;5.820;2024-01-10T06:37:09;1.92;;;1.38;;
84381;SDS011;74572;51.834;5.820;2024-01-10T06:39:35;3.50;;;1.35;;
84381;SDS011;74572;51.834;5.820;2024-01-10T06:42:01;10.20;;;3.35;;
84381;SDS011;74572;51.834;5.820;2024-01-10T06:44:28;0.82;;;0.52;;
84381;SDS011;74572;51.834;5.820;2024-01-10T06:46:55;1.17;;;0.65;;
84381;SDS011;74572;51.834;5.820;2024-01-10T06:49:20;5.43;;;1.73;;
84381;SDS011;74572;51.834;5.820;2024-01-10T06:51:46;0.50;;;0.37;;
84381;SDS011;74572;51.834;5.820;2024-01-10T06:54:11;5.38;;;1.95;;
84381;SDS011;74572;51.834;5.820;2024-01-10T06:56:38;4.97;;;0.95;;
84381;SDS011;74572;51.834;5.820;2024-01-10T06:59:04;2.17;;;0.95;;
84381;SDS011;74572;51.834;5.820;2024-01-10T07:01:29;1.50;;;1.05;;
84381;SDS011;74572;51.834;5.820;2024-01-10T07:03:56;3.35;;;1.70;;
84381;SDS011;74572;51.834;5.820;2024-01-10T07:06:21;3.22;;;1.20;;
84381;SDS011;74572;51.834;5.820;2024-01-10T07:08:48;6.15;;;1.73;;
84381;SDS011;74572;51.834;5.820;2024-01-10T07:11:15;1.88;;;1.05;;
84381;SDS011;74572;51.834;5.820;2024-01-10T07:13:41;4.65;;;1.33;;
84381;SDS011;74572;51.834;5.820;2024-01-10T07:16:08;2.72;;;1.83;;
84381;SDS011;74572;51.834;5.820;2024-01-10T07:18:34;5.32;;;1.80;;
84381;SDS011;74572;51.834;5.820;2024-01-10T07:21:02;3.20;;;1.05;;
84381;SDS011;74572;51.834;5.820;2024-01-10T07:23:28;1.90;;;0.60;;
84381;SDS011;74572;51.834;5.820;2024-01-10T07:25:54;3.92;;;1.30;;
84381;SDS011;74572;51.834;5.820;2024-01-10T07:28:19;3.38;;;1.45;;
84381;SDS011;74572;51.834;5.820;2024-01-10T07:30:47;1.30;;;0.68;;
84381;SDS011;74572;51.834;5.820;2024-01-10T07:33:13;2.78;;;1.25;;
84381;SDS011;74572;51.834;5.820;2024-01-10T07:35:39;2.40;;;1.27;;
84381;SDS011;74572;51.834;5.820;2024-01-10T07:38:05;6.18;;;2.47;;
84381;SDS011;74572;51.834;5.820;2024-01-10T07:40:34;3.05;;;0.93;;
84381;SDS011;74572;51.834;5.820;2024-01-10T07:43:00;2.95;;;1.13;;
84381;SDS011;74572;51.834;5.820;2024-01-10T07:45:26;2.03;;;0.82;;
84381;SDS011;74572;51.834;5.820;2024-01-10T07:47:51;4.85;;;2.17;;
84381;SDS011;74572;51.834;5.820;2024-01-10T07:50:19;2.78;;;0.93;;
84381;SDS011;74572;51.834;5.820;2024-01-10T07:52:46;0.60;;;0.50;;
84381;SDS011;74572;51.834;5.820;2024-01-10T07:55:17;2.63;;;1.13;;
84381;SDS011;74572;51.834;5.820;2024-01-10T07:57:43;4.03;;;0.77;;
84381;SDS011;74572;51.834;5.820;2024-01-10T08:00:09;3.15;;;1.77;;
84381;SDS011;74572;51.834;5.820;2024-01-10T08:02:39;7.07;;;2.72;;
84381;SDS011;74572;51.834;5.820;2024-01-10T08:05:05;3.63;;;1.75;;
84381;SDS011;74572;51.834;5.820;2024-01-10T08:07:34;3.35;;;1.27;;
84381;SDS011;74572;51.834;5.820;2024-01-10T08:10:05;1.45;;;1.10;;
84381;SDS011;74572;51.834;5.820;2024-01-10T08:12:34;6.35;;;2.78;;
84381;SDS011;74572;51.834;5.820;2024-01-10T08:15:00;2.55;;;1.60;;
84381;SDS011;74572;51.834;5.820;2024-01-10T08:17:26;0.95;;;0.60;;
84381;SDS011;74572;51.834;5.820;2024-01-10T08:19:52;2.72;;;1.48;;
84381;SDS011;74572;51.834;5.820;2024-01-10T08:22:18;7.18;;;2.60;;
84381;SDS011;74572;51.834;5.820;2024-01-10T08:24:45;7.05;;;3.22;;
84381;SDS011;74572;51.834;5.820;2024-01-10T08:27:11;3.47;;;1.15;;
84381;SDS011;74572;51.834;5.820;2024-01-10T08:29:37;3.22;;;1.73;;
84381;SDS011;74572;51.834;5.820;2024-01-10T08:32:02;7.43;;;2.35;;
84381;SDS011;74572;51.834;5.820;2024-01-10T08:34:31;4.63;;;1.80;;
84381;SDS011;74572;51.834;5.820;2024-01-10T08:36:57;3.10;;;1.40;;
84381;SDS011;74572;51.834;5.820;2024-01-10T08:39:22;2.00;;;0.93;;
84381;SDS011;74572;51.834;5.820;2024-01-10T08:41:49;3.88;;;1.50;;
84381;SDS011;74572;51.834;5.820;2024-01-10T08:44:15;2.30;;;1.60;;
84381;SDS011;74572;51.834;5.820;2024-01-10T08:46:43;6.20;;;2.95;;
84381;SDS011;74572;51.834;5.820;2024-01-10T08:49:11;4.90;;;2.05;;
84381;SDS011;74572;51.834;5.820;2024-01-10T08:51:37;3.25;;;2.13;;
84381;SDS011;74572;51.834;5.820;2024-01-10T08:54:03;3.42;;;1.73;;
84381;SDS011;74572;51.834;5.820;2024-01-10T08:56:29;3.33;;;1.95;;
84381;SDS011;74572;51.834;5.820;2024-01-10T08:59:00;2.28;;;1.10;;
84381;SDS011;74572;51.834;5.820;2024-01-10T09:01:30;3.08;;;2.15;;
84381;SDS011;74572;51.834;5.820;2024-01-10T09:03:56;2.67;;;1.98;;
84381;SDS011;74572;51.834;5.820;2024-01-10T09:06:22;5.32;;;2.63;;
84381;SDS011;74572;51.834;5.820;2024-01-10T09:08:47;3.15;;;1.92;;
84381;SDS011;74572;51.834;5.820;2024-01-10T09:11:13;2.90;;;1.55;;
84381;SDS011;74572;51.834;5.820;2024-01-10T09:13:38;4.28;;;1.65;;
84381;SDS011;74572;51.834;5.820;2024-01-10T09:16:05;3.58;;;1.25;;
84381;SDS011;74572;51.834;5.820;2024-01-10T09:18:31;5.93;;;1.27;;
84381;SDS011;74572;51.834;5.820;2024-01-10T09:20:56;4.82;;;2.58;;
84381;SDS011;74572;51.834;5.820;2024-01-10T09:23:21;6.80;;;2.63;;
84381;SDS011;74572;51.834;5.820;2024-01-10T09:25:50;2.20;;;1.45;;
84381;SDS011;74572;51.834;5.820;2024-01-10T09:28:15;3.95;;;1.75;;
84381;SDS011;74572;51.834;5.820;2024-01-10T09:30:40;2.40;;;1.38;;
84381;SDS011;74572;51.834;5.820;2024-01-10T09:33:06;2.40;;;1.00;;
84381;SDS011;74572;51.834;5.820;2024-01-10T09:35:31;5.30;;;2.03;;
84381;SDS011;74572;51.834;5.820;2024-01-10T09:38:00;5.28;;;3.13;;
84381;SDS011;74572;51.834;5.820;2024-01-10T09:40:27;3.88;;;1.50;;
84381;SDS011;74572;51.834;5.820;2024-01-10T09:42:54;6.68;;;2.90;;
84381;SDS011;74572;51.834;5.820;2024-01-10T09:45:20;6.05;;;3.97;;
84381;SDS011;74572;51.834;5.820;2024-01-10T09:47:48;8.63;;;4.35;;
84381;SDS011;74572;51.834;5.820;2024-01-10T09:50:14;6.72;;;3.58;;
84381;SDS011;74572;51.834;5.820;2024-01-10T09:52:41;10.35;;;5.13;;
84381;SDS011;74572;51.834;5.820;2024-01-10T09:55:21;11.15;;;4.75;;
84381;SDS011;74572;51.834;5.820;2024-01-10T09:57:48;10.35;;;4.72;;
84381;SDS011;74572;51.834;5.820;2024-01-10T10:00:15;6.80;;;3.53;;
84381;SDS011;74572;51.834;5.820;2024-01-10T10:02:43;8.75;;;4.80;;
84381;SDS011;74572;51.834;5.820;2024-01-10T10:05:32;5.60;;;3.97;;
84381;SDS011;74572;51.834;5.820;2024-01-10T10:07:59;8.75;;;4.95;;
84381;SDS011;74572;51.834;5.820;2024-01-10T10:10:29;6.68;;;4.25;;
84381;SDS011;74572;51.834;5.820;2024-01-10T10:12:54;9.25;;;4.55;;
84381;SDS011;74572;51.834;5.820;2024-01-10T10:15:22;9.55;;;4.90;;
84381;SDS011;74572;51.834;5.820;2024-01-10T10:17:51;6.90;;;3.72;;
84381;SDS011;74572;51.834;5.820;2024-01-10T10:20:29;7.55;;;4.43;;
84381;SDS011;74572;51.834;5.820;2024-01-10T10:25:36;10.77;;;5.05;;
84381;SDS011;74572;51.834;5.820;2024-01-10T10:28:07;10.90;;;4.65;;
84381;SDS011;74572;51.834;5.820;2024-01-10T10:30:32;12.93;;;4.82;;
84381;SDS011;74572;51.834;5.820;2024-01-10T10:33:03;9.45;;;5.03;;
84381;SDS011;74572;51.834;5.820;2024-01-10T10:35:33;9.75;;;4.53;;
84381;SDS011;74572;51.834;5.820;2024-01-10T10:37:59;6.90;;;3.08;;
84381;SDS011;74572;51.834;5.820;2024-01-10T10:40:25;9.30;;;4.30;;
84381;SDS011;74572;51.834;5.820;2024-01-10T10:42:57;9.60;;;4.65;;
84381;SDS011;74572;51.834;5.820;2024-01-10T10:45:22;8.63;;;4.32;;
84381;SDS011;74572;51.834;5.820;2024-01-10T10:47:56;10.13;;;4.97;;
84381;SDS011;74572;51.834;5.820;2024-01-10T10:50:23;8.93;;;4.93;;
84381;SDS011;74572;51.834;5.820;2024-01-10T10:52:52;9.05;;;3.15;;
84381;SDS011;74572;51.834;5.820;2024-01-10T10:55:20;4.10;;;2.13;;
84381;SDS011;74572;51.834;5.820;2024-01-10T10:57:48;9.20;;;4.00;;
84381;SDS011;74572;51.834;5.820;2024-01-10T11:00:15;8.00;;;3.90;;
84381;SDS011;74572;51.834;5.820;2024-01-10T11:02:44;6.18;;;3.47;;
84381;SDS011;74572;51.834;5.820;2024-01-10T11:05:10;6.57;;;2.85;;
84381;SDS011;74572;51.834;5.820;2024-01-10T11:07:42;8.60;;;3.80;;
84381;SDS011;74572;51.834;5.820;2024-01-10T11:10:17;5.40;;;2.90;;
84381;SDS011;74572;51.834;5.820;2024-01-10T11:13:00;10.63;;;4.60;;
84381;SDS011;74572;51.834;5.820;2024-01-10T11:25:12;9.88;;;2.88;;
84381;SDS011;74572;51.834;5.820;2024-01-10T11:27:40;8.80;;;3.78;;
84381;SDS011;74572;51.834;5.820;2024-01-10T11:30:10;4.38;;;2.33;;
84381;SDS011;74572;51.834;5.820;2024-01-10T11:32:36;9.95;;;3.95;;
84381;SDS011;74572;51.834;5.820;2024-01-10T11:35:10;4.03;;;1.70;;
84381;SDS011;74572;51.834;5.820;2024-01-10T11:37:45;11.27;;;3.83;;
84381;SDS011;74572;51.834;5.820;2024-01-10T11:40:14;8.00;;;2.85;;
84381;SDS011;74572;51.834;5.820;2024-01-10T11:42:45;5.43;;;3.00;;
84381;SDS011;74572;51.834;5.820;2024-01-10T11:46:12;10.57;;;3.70;;
84381;SDS011;74572;51.834;5.820;2024-01-10T11:48:15;6.50;;;2.13;;
84381;SDS011;74572;51.834;5.820;2024-01-10T11:50:50;7.18;;;3.67;;
84381;SDS011;74572;51.834;5.820;2024-01-10T11:53:37;5.32;;;3.03;;
84381;SDS011;74572;51.834;5.820;2024-01-10T11:56:15;6.15;;;3.15;;
84381;SDS011;74572;51.834;5.820;2024-01-10T11:58:54;4.05;;;1.75;;
84381;SDS011;74572;51.834;5.820;2024-01-10T12:01:30;4.60;;;2.58;;
84381;SDS011;74572;51.834;5.820;2024-01-10T12:03:59;8.90;;;3.53;;
84381;SDS011;74572;51.834;5.820;2024-01-10T12:06:25;4.93;;;3.35;;
84381;SDS011;74572;51.834;5.820;2024-01-10T12:08:51;11.80;;;4.53;;
84381;SDS011;74572;51.834;5.820;2024-01-10T12:11:17;6.15;;;2.13;;
84381;SDS011;74572;51.834;5.820;2024-01-10T12:13:43;8.13;;;4.10;;
84381;SDS011;74572;51.834;5.820;2024-01-10T12:16:10;10.98;;;3.53;;
84381;SDS011;74572;51.834;5.820;2024-01-10T12:18:37;8.70;;;3.42;;
84381;SDS011;74572;51.834;5.820;2024-01-10T12:21:02;8.38;;;3.03;;
84381;SDS011;74572;51.834;5.820;2024-01-10T12:23:27;4.05;;;1.92;;
84381;SDS011;74572;51.834;5.820;2024-01-10T12:25:57;5.05;;;3.08;;
84381;SDS011;74572;51.834;5.820;2024-01-10T12:28:37;7.68;;;2.78;;
84381;SDS011;74572;51.834;5.820;2024-01-10T12:31:05;5.20;;;1.77;;
84381;SDS011;74572;51.834;5.820;2024-01-10T12:33:37;7.95;;;3.17;;
84381;SDS011;74572;51.834;5.820;2024-01-10T12:38:32;7.70;;;2.95;;
84381;SDS011;74572;51.834;5.820;2024-01-10T12:40:58;6.00;;;2.67;;
84381;SDS011;74572;51.834;5.820;2024-01-10T12:43:27;8.88;;;3.20;;
84381;SDS011;74572;51.834;5.820;2024-01-10T12:46:02;6.40;;;3.20;;
84381;SDS011;74572;51.834;5.820;2024-01-10T12:48:30;5.43;;;2.85;;
84381;SDS011;74572;51.834;5.820;2024-01-10T12:50:56;9.13;;;3.88;;
84381;SDS011;74572;51.834;5.820;2024-01-10T12:53:26;6.00;;;2.95;;
84381;SDS011;74572;51.834;5.820;2024-01-10T12:55:56;7.30;;;3.03;;
84381;SDS011;74572;51.834;5.820;2024-01-10T12:58:23;6.47;;;2.58;;
84381;SDS011;74572;51.834;5.820;2024-01-10T13:00:51;5.28;;;2.63;;
84381;SDS011;74572;51.834;5.820;2024-01-10T13:03:17;7.53;;;2.42;;
84381;SDS011;74572;51.834;5.820;2024-01-10T13:05:44;5.65;;;1.45;;
84381;SDS011;74572;51.834;5.820;2024-01-10T13:08:11;4.38;;;2.45;;
84381;SDS011;74572;51.834;5.820;2024-01-10T13:10:38;5.28;;;1.77;;
84381;SDS011;74572;51.834;5.820;2024-01-10T13:13:03;4.22;;;1.58;;
84381;SDS011;74572;51.834;5.820;2024-01-10T13:15:29;7.65;;;3.38;;
84381;SDS011;74572;51.834;5.820;2024-01-10T13:17:56;8.73;;;3.67;;
84381;SDS011;74572;51.834;5.820;2024-01-10T13:20:23;5.22;;;2.95;;
84381;SDS011;74572;51.834;5.820;2024-01-10T13:22:50;7.07;;;3.47;;
84381;SDS011;74572;51.834;5.820;2024-01-10T13:25:16;9.38;;;3.97;;
84381;SDS011;74572;51.834;5.820;2024-01-10T13:27:42;6.00;;;2.95;;
84381;SDS011;74572;51.834;5.820;2024-01-10T13:30:08;6.55;;;2.65;;
84381;SDS011;74572;51.834;5.820;2024-01-10T13:32:37;6.68;;;2.67;;
84381;SDS011;74572;51.834;5.820;2024-01-10T13:35:05;7.55;;;2.70;;
84381;SDS011;74572;51.834;5.820;2024-01-10T13:37:32;6.90;;;3.80;;
84381;SDS011;74572;51.834;5.820;2024-01-10T13:40:02;6.10;;;3.20;;
84381;SDS011;74572;51.834;5.820;2024-01-10T13:42:35;8.80;;;3.80;;
84381;SDS011;74572;51.834;5.820;2024-01-10T13:45:03;4.40;;;2.47;;
84381;SDS011;74572;51.834;5.820;2024-01-10T13:47:30;3.03;;;2.00;;
84381;SDS011;74572;51.834;5.820;2024-01-10T13:49:58;10.70;;;4.40;;
84381;SDS011;74572;51.834;5.820;2024-01-10T13:52:24;6.05;;;2.58;;
84381;SDS011;74572;51.834;5.820;2024-01-10T13:54:49;5.00;;;1.63;;
84381;SDS011;74572;51.834;5.820;2024-01-10T13:57:16;4.13;;;2.10;;
84381;SDS011;74572;51.834;5.820;2024-01-10T13:59:41;6.43;;;2.75;;
84381;SDS011;74572;51.834;5.820;2024-01-10T14:02:07;7.40;;;3.25;;
84381;SDS011;74572;51.834;5.820;2024-01-10T14:04:36;5.63;;;3.38;;
84381;SDS011;74572;51.834;5.820;2024-01-10T14:07:06;9.02;;;2.97;;
84381;SDS011;74572;51.834;5.820;2024-01-10T14:09:32;8.45;;;3.67;;
84381;SDS011;74572;51.834;5.820;2024-01-10T14:11:57;7.95;;;3.72;;
84381;SDS011;74572;51.834;5.820;2024-01-10T14:14:23;5.88;;;3.25;;
84381;SDS011;74572;51.834;5.820;2024-01-10T14:16:48;9.05;;;3.47;;
84381;SDS011;74572;51.834;5.820;2024-01-10T14:19:14;7.22;;;3.53;;
84381;SDS011;74572;51.834;5.820;2024-01-10T14:21:44;6.53;;;3.15;;
84381;SDS011;74572;51.834;5.820;2024-01-10T14:24:13;6.95;;;3.70;;
84381;SDS011;74572;51.834;5.820;2024-01-10T14:26:39;10.15;;;4.13;;
84381;SDS011;74572;51.834;5.820;2024-01-10T14:29:05;8.57;;;4.13;;
84381;SDS011;74572;51.834;5.820;2024-01-10T14:31:31;10.25;;;4.43;;
84381;SDS011;74572;51.834;5.820;2024-01-10T14:33:57;3.70;;;1.63;;
84381;SDS011;74572;51.834;5.820;2024-01-10T14:36:22;5.45;;;2.70;;
84381;SDS011;74572;51.834;5.820;2024-01-10T14:38:48;5.18;;;2.10;;
84381;SDS011;74572;51.834;5.820;2024-01-10T14:41:14;6.20;;;2.58;;
84381;SDS011;74572;51.834;5.820;2024-01-10T14:43:39;7.22;;;3.40;;
84381;SDS011;74572;51.834;5.820;2024-01-10T14:46:06;8.68;;;4.85;;
84381;SDS011;74572;51.834;5.820;2024-01-10T14:48:32;7.53;;;3.05;;
84381;SDS011;74572;51.834;5.820;2024-01-10T14:50:58;6.13;;;2.28;;
84381;SDS011;74572;51.834;5.820;2024-01-10T14:53:25;4.40;;;2.05;;
84381;SDS011;74572;51.834;5.820;2024-01-10T14:55:50;7.75;;;4.30;;
84381;SDS011;74572;51.834;5.820;2024-01-10T14:58:16;13.53;;;4.53;;
84381;SDS011;74572;51.834;5.820;2024-01-10T15:00:42;8.23;;;3.92;;
84381;SDS011;74572;51.834;5.820;2024-01-10T15:03:09;7.32;;;2.60;;